createdAt,value
2017-03-01T00:00:12.551Z,77.73
2017-03-01T00:01:26.987Z,77.82
2017-03-01T00:02:41.418Z,78.21
2017-03-01T00:03:55.841Z,78.21
2017-03-01T00:05:09.625Z,77.82
2017-03-01T00:06:23.688Z,77.92
2017-03-01T00:07:38.346Z,78.5
2017-03-01T00:08:53.645Z,78.89
2017-03-01T00:10:08.843Z,78.59
2017-03-01T00:11:24.491Z,78.89
2017-03-01T00:12:39.386Z,78.5
2017-03-01T00:13:54.111Z,78.41
2017-03-01T00:15:08.558Z,78.59
2017-03-01T00:16:22.965Z,78.79
2017-03-01T00:17:36.756Z,78.41
2017-03-01T00:18:51.210Z,78.02
2017-03-01T00:20:06.887Z,77.92
2017-03-01T00:21:22.091Z,77.92
2017-03-01T00:22:36.541Z,78.21
2017-03-01T00:23:50.990Z,77.82
2017-03-01T00:25:05.602Z,78.5
2017-03-01T00:26:20.056Z,78.69
2017-03-01T00:27:33.873Z,78.89
2017-03-01T00:28:49.093Z,78.31
2017-03-01T00:30:05.191Z,78.31
2017-03-01T00:31:20.200Z,78.99
2017-03-01T00:32:35.243Z,79.27
2017-03-01T00:33:51.186Z,79.52
2017-03-01T00:35:04.948Z,79.04
2017-03-01T00:36:18.717Z,79.33
2017-03-01T00:37:32.682Z,79.52
2017-03-01T00:38:47.976Z,79.24
2017-03-01T00:40:03.523Z,79.52
2017-03-01T00:41:18.208Z,79.91
2017-03-01T00:42:32.629Z,79.62
2017-03-01T00:43:47.327Z,80.11
2017-03-01T00:45:01.877Z,80.01
2017-03-01T00:46:17.132Z,80.3
2017-03-01T00:47:32.301Z,80.11
2017-03-01T00:48:46.740Z,80.3
2017-03-01T00:50:00.531Z,80.11
2017-03-01T00:51:13.858Z,80.2
2017-03-01T00:52:28.518Z,80.49
2017-03-01T00:53:44.034Z,81.75
2017-03-01T00:54:57.808Z,81.56
2017-03-01T00:56:12.205Z,81.65
2017-03-01T00:57:26.712Z,81.56
2017-03-01T00:58:41.336Z,80.69
2017-03-01T00:59:56.174Z,81.46
2017-03-01T01:01:10.648Z,81.9
2017-03-01T01:02:25.065Z,81.81
2017-03-01T01:03:39.500Z,82.1
2017-03-01T01:04:54.565Z,82.97
2017-03-01T01:06:09.787Z,83.74
2017-03-01T01:07:24.347Z,83.36
2017-03-01T01:08:39.769Z,81.71
2017-03-01T01:09:54.854Z,84.03
2017-03-01T01:11:09.840Z,80.84
2017-03-01T01:12:24.832Z,82.87
2017-03-01T01:13:39.546Z,84.61
2017-03-01T01:14:53.960Z,84.32
2017-03-01T01:16:08.709Z,82.1
2017-03-01T01:17:22.782Z,84.32
2017-03-01T01:18:37.010Z,84.52
2017-03-01T01:19:51.878Z,84.22
2017-03-01T01:21:06.291Z,85
2017-03-01T01:22:20.552Z,84.61
2017-03-01T01:23:34.768Z,84.61
2017-03-01T01:24:49.376Z,83.74
2017-03-01T01:26:03.770Z,84.8
2017-03-01T01:27:18.206Z,83.94
2017-03-01T01:28:33.309Z,82
2017-03-01T01:29:47.754Z,79.49
2017-03-01T01:31:02.420Z,79.2
2017-03-01T01:32:17.663Z,79.58
2017-03-01T01:33:32.744Z,79.49
2017-03-01T01:34:47.961Z,78.81
2017-03-01T01:36:02.763Z,79.39
2017-03-01T01:37:18.411Z,78.91
2017-03-01T01:38:33.121Z,78.87
2017-03-01T01:39:47.582Z,78.96
2017-03-01T01:41:01.378Z,78.58
2017-03-01T01:42:15.808Z,78.91
2017-03-01T01:43:30.221Z,79.1
2017-03-01T01:44:44.027Z,79.1
2017-03-01T01:45:58.450Z,79.45
2017-03-01T01:47:12.895Z,79.93
2017-03-01T01:48:27.309Z,80.41
2017-03-01T01:49:41.735Z,80.71
2017-03-01T01:50:56.746Z,80.9
2017-03-01T01:52:11.154Z,81.19
2017-03-01T01:53:25.613Z,80.51
2017-03-01T01:54:40.054Z,80.22
2017-03-01T01:55:54.739Z,80.18
2017-03-01T01:57:10.046Z,80.66
2017-03-01T01:58:25.806Z,80.12
2017-03-01T01:59:40.661Z,80.22
2017-03-01T02:00:55.941Z,79.16
2017-03-01T02:02:11.619Z,79.74
2017-03-01T02:03:27.115Z,79.25
2017-03-01T02:04:41.729Z,78.77
2017-03-01T02:05:56.771Z,78.48
2017-03-01T02:07:11.623Z,78.77
2017-03-01T02:08:26.685Z,77.84
2017-03-01T02:09:41.849Z,78.81
2017-03-01T02:10:57.151Z,78.91
2017-03-01T02:12:11.782Z,78.42
2017-03-01T02:13:26.217Z,78.81
2017-03-01T02:14:41.952Z,78.91
2017-03-01T02:15:56.830Z,78.81
2017-03-01T02:17:11.732Z,78.87
2017-03-01T02:18:27.622Z,79.25
2017-03-01T02:19:43.287Z,79.45
2017-03-01T02:20:58.452Z,79.64
2017-03-01T02:22:14.101Z,80.07
2017-03-01T02:23:28.366Z,80.26
2017-03-01T02:24:43.715Z,80.36
2017-03-01T02:25:57.919Z,80.84
2017-03-01T02:27:12.751Z,81.04
2017-03-01T02:28:28.026Z,80.55
2017-03-01T02:29:43.072Z,81.04
2017-03-01T02:30:58.311Z,80.16
2017-03-01T02:32:13.207Z,80.74
2017-03-01T02:33:28.806Z,81.62
2017-03-01T02:34:44.385Z,81.71
2017-03-01T02:35:59.435Z,81.62
2017-03-01T02:37:15.245Z,82.1
2017-03-01T02:38:30.374Z,82.39
2017-03-01T02:39:44.816Z,82.39
2017-03-01T02:40:59.273Z,82.68
2017-03-01T02:42:13.098Z,82.68
2017-03-01T02:43:27.532Z,83.45
2017-03-01T02:44:41.934Z,83.06
2017-03-01T02:45:56.358Z,83.26
2017-03-01T02:47:11.394Z,83.26
2017-03-01T02:48:26.635Z,83.06
2017-03-01T02:49:40.612Z,83.06
2017-03-01T02:50:55.009Z,83.36
2017-03-01T02:52:09.469Z,83.16
2017-03-01T02:53:23.946Z,83.7
2017-03-01T02:54:39.018Z,83.74
2017-03-01T02:55:53.419Z,84.13
2017-03-01T02:57:07.909Z,84.8
2017-03-01T02:58:22.438Z,84.28
2017-03-01T02:59:36.840Z,84.09
2017-03-01T03:00:51.303Z,85.93
2017-03-01T03:02:05.697Z,85.83
2017-03-01T03:03:20.082Z,85.05
2017-03-01T03:04:34.493Z,85.93
2017-03-01T03:05:48.887Z,85.93
2017-03-01T03:07:03.303Z,85.83
2017-03-01T03:08:17.710Z,85.93
2017-03-01T03:09:32.102Z,86.21
2017-03-01T03:10:46.506Z,86.51
2017-03-01T03:12:00.932Z,87.18
2017-03-01T03:13:14.781Z,87.47
2017-03-01T03:14:28.612Z,87.95
2017-03-01T03:15:43.069Z,88.24
2017-03-01T03:16:57.493Z,88.19
2017-03-01T03:18:11.925Z,88.09
2017-03-01T03:19:26.338Z,88.24
2017-03-01T03:20:40.824Z,89.25
2017-03-01T03:21:55.228Z,88.82
2017-03-01T03:23:09.609Z,89.21
2017-03-01T03:24:23.370Z,89.4
2017-03-01T03:25:37.174Z,89.98
2017-03-01T03:26:51.600Z,89.5
2017-03-01T03:28:06.015Z,89.79
2017-03-01T03:29:20.481Z,90.08
2017-03-01T03:30:34.889Z,89.79
2017-03-01T03:31:49.311Z,89.69
2017-03-01T03:33:03.749Z,89.4
2017-03-01T03:34:18.177Z,90.37
2017-03-01T03:35:32.633Z,90.37
2017-03-01T03:36:46.480Z,89.89
2017-03-01T03:38:00.930Z,89.98
2017-03-01T03:39:15.326Z,90.52
2017-03-01T03:40:29.117Z,90.91
2017-03-01T03:41:43.530Z,90.23
2017-03-01T03:42:57.943Z,90.91
2017-03-01T03:44:12.393Z,91.19
2017-03-01T03:45:26.233Z,91.19
2017-03-01T03:46:40.738Z,91.77
2017-03-01T03:47:55.149Z,92.16
2017-03-01T03:49:09.560Z,92.45
2017-03-01T03:50:23.438Z,93.32
2017-03-01T03:51:37.922Z,93.8
2017-03-01T03:52:51.765Z,92.74
2017-03-01T03:54:06.170Z,94.09
2017-03-01T03:55:19.928Z,93.51
2017-03-01T03:56:33.698Z,94.57
2017-03-01T03:57:48.134Z,94.09
2017-03-01T03:59:02.563Z,93.8
2017-03-01T04:00:16.984Z,94.48
2017-03-01T04:01:30.784Z,94.57
2017-03-01T04:02:45.168Z,93.9
2017-03-01T04:03:59.592Z,94.19
2017-03-01T04:05:13.375Z,93.9
2017-03-01T04:06:27.826Z,93.03
2017-03-01T04:07:42.245Z,93.61
2017-03-01T04:08:56.033Z,93.03
2017-03-01T04:10:10.448Z,93.23
2017-03-01T04:11:24.853Z,93.13
2017-03-01T04:12:38.608Z,93.41
2017-03-01T04:13:52.390Z,93.23
2017-03-01T04:15:06.791Z,93.71
2017-03-01T04:16:21.188Z,94.29
2017-03-01T04:17:35.587Z,94.48
2017-03-01T04:18:50.005Z,93.8
2017-03-01T04:20:03.780Z,93.8
2017-03-01T04:21:18.196Z,94.09
2017-03-01T04:22:32.625Z,92.25
2017-03-01T04:23:47.037Z,90.23
2017-03-01T04:25:01.457Z,90.52
2017-03-01T04:26:15.852Z,91.05
2017-03-01T04:27:29.638Z,91.53
2017-03-01T04:28:44.045Z,91.43
2017-03-01T04:30:17.103Z,91.43
2017-03-01T04:31:30.834Z,91.05
2017-03-01T04:32:44.592Z,91.05
2017-03-01T04:33:59.009Z,90.75
2017-03-01T04:35:19.065Z,90.17
2017-03-01T04:36:33.513Z,90.47
2017-03-01T04:37:47.914Z,91.33
2017-03-01T04:39:02.338Z,91.24
2017-03-01T04:40:16.792Z,90.66
2017-03-01T04:41:31.187Z,91.09
2017-03-01T04:42:44.982Z,90.33
2017-03-01T04:43:59.423Z,90.33
2017-03-01T04:45:13.834Z,90.61
2017-03-01T04:46:28.235Z,90.81
2017-03-01T04:47:42.023Z,91.19
2017-03-01T04:48:56.454Z,91.09
2017-03-01T04:50:10.903Z,91.29
2017-03-01T04:51:25.298Z,91.19
2017-03-01T04:52:39.889Z,91.19
2017-03-01T04:53:53.171Z,91.29
2017-03-01T04:55:07.557Z,91.09
2017-03-01T04:56:22.031Z,91.97
2017-03-01T04:57:36.451Z,91.39
2017-03-01T04:58:50.246Z,92.35
2017-03-01T05:00:04.676Z,92.07
2017-03-01T05:01:19.116Z,92.25
2017-03-01T05:02:33.531Z,93.03
2017-03-01T05:03:47.763Z,93.32
2017-03-01T05:05:02.207Z,93.47
2017-03-01T05:06:16.025Z,93.76
2017-03-01T05:07:30.451Z,94.04
2017-03-01T05:08:44.877Z,94.14
2017-03-01T05:09:58.653Z,93.66
2017-03-01T05:11:12.418Z,93.95
2017-03-01T05:12:26.847Z,94.43
2017-03-01T05:13:41.229Z,94.34
2017-03-01T05:14:55.648Z,94.34
2017-03-01T05:16:10.029Z,94.24
2017-03-01T05:17:24.396Z,95.3
2017-03-01T05:18:38.840Z,94.92
2017-03-01T05:19:52.621Z,94.82
2017-03-01T05:21:07.033Z,94.82
2017-03-01T05:22:21.490Z,94.14
2017-03-01T05:23:34.633Z,95.06
2017-03-01T05:24:48.429Z,95.64
2017-03-01T05:26:02.830Z,95.3
2017-03-01T05:27:17.270Z,96.22
2017-03-01T05:28:31.734Z,95.83
2017-03-01T05:29:46.166Z,95.35
2017-03-01T05:31:00.579Z,96.8
2017-03-01T05:32:14.983Z,97.19
2017-03-01T05:33:29.386Z,96.89
2017-03-01T05:34:43.151Z,97.38
2017-03-01T05:35:57.578Z,96.8
2017-03-01T05:37:11.987Z,97.77
2017-03-01T05:38:26.379Z,98.25
2017-03-01T05:39:40.782Z,97.96
2017-03-01T05:40:55.187Z,98.44
2017-03-01T05:42:09.624Z,95.93
2017-03-01T05:43:22.740Z,96.22
2017-03-01T05:44:37.186Z,95.35
2017-03-01T05:45:51.581Z,95.83
2017-03-01T05:47:06.042Z,96.89
2017-03-01T05:48:20.467Z,96.03
2017-03-01T05:49:34.871Z,95.74
2017-03-01T05:50:49.272Z,94.87
2017-03-01T05:52:03.713Z,95.25
2017-03-01T05:53:18.110Z,94.2
2017-03-01T05:54:32.527Z,94
2017-03-01T05:55:46.974Z,94.29
2017-03-01T05:57:01.363Z,94.29
2017-03-01T05:58:15.803Z,93.13
2017-03-01T05:59:30.224Z,94
2017-03-01T06:00:44.625Z,94
2017-03-01T06:01:59.049Z,94
2017-03-01T06:03:13.516Z,94.29
2017-03-01T06:04:27.961Z,95.25
2017-03-01T06:05:42.408Z,95.54
2017-03-01T06:06:56.885Z,94.77
2017-03-01T06:08:11.333Z,94.87
2017-03-01T06:09:25.773Z,94.38
2017-03-01T06:10:40.167Z,94.29
2017-03-01T06:11:53.959Z,94.1
2017-03-01T06:13:08.403Z,94.29
2017-03-01T06:14:22.196Z,93.62
2017-03-01T06:15:35.348Z,93.8
2017-03-01T06:16:49.809Z,92.26
2017-03-01T06:18:04.265Z,93.62
2017-03-01T06:19:18.041Z,91.88
2017-03-01T06:20:32.455Z,93.13
2017-03-01T06:21:46.874Z,92.74
2017-03-01T06:23:01.263Z,92.26
2017-03-01T06:24:15.705Z,91.78
2017-03-01T06:25:29.502Z,92.16
2017-03-01T06:26:43.909Z,92.07
2017-03-01T06:27:57.585Z,92.55
2017-03-01T06:29:11.999Z,93.42
2017-03-01T06:30:25.770Z,93.62
2017-03-01T06:31:40.173Z,93.71
2017-03-01T06:32:54.599Z,93.9
2017-03-01T06:34:08.402Z,93.9
2017-03-01T06:35:22.831Z,94
2017-03-01T06:36:37.256Z,94.34
2017-03-01T06:37:51.033Z,94.68
2017-03-01T06:39:05.435Z,95.21
2017-03-01T06:40:19.851Z,95.5
2017-03-01T06:41:34.285Z,95.21
2017-03-01T06:42:48.695Z,95.59
2017-03-01T06:44:03.074Z,96.17
2017-03-01T06:45:17.510Z,95.79
2017-03-01T06:46:30.689Z,95.31
2017-03-01T06:47:45.091Z,95.88
2017-03-01T06:48:58.860Z,95.4
2017-03-01T06:50:12.686Z,94.73
2017-03-01T06:51:26.460Z,95.31
2017-03-01T06:52:40.862Z,93.57
2017-03-01T06:53:55.267Z,93.08
2017-03-01T06:55:09.746Z,91.74
2017-03-01T06:56:24.157Z,92.12
2017-03-01T06:57:38.577Z,93.32
2017-03-01T06:58:52.358Z,92.22
2017-03-01T07:00:06.765Z,92.07
2017-03-01T07:01:21.214Z,92.16
2017-03-01T07:02:35.012Z,92.36
2017-03-01T07:03:49.428Z,92.16
2017-03-01T07:05:03.842Z,92.5
2017-03-01T07:06:18.229Z,91.88
2017-03-01T07:07:32.676Z,91.97
2017-03-01T07:08:47.101Z,92.32
2017-03-01T07:10:01.543Z,92.6
2017-03-01T07:11:15.977Z,92.55
2017-03-01T07:12:29.764Z,92.32
2017-03-01T07:13:44.227Z,91.93
2017-03-01T07:14:58.634Z,92.22
2017-03-01T07:16:12.401Z,91.93
2017-03-01T07:17:26.798Z,91.74
2017-03-01T07:18:40.631Z,92.36
2017-03-01T07:19:55.055Z,92.26
2017-03-01T07:21:09.546Z,91.39
2017-03-01T07:22:23.978Z,91.88
2017-03-01T07:23:38.388Z,92.16
2017-03-01T07:24:52.808Z,91.88
2017-03-01T07:26:07.261Z,92.07
2017-03-01T07:27:21.702Z,92.5
2017-03-01T07:28:35.471Z,93.08
2017-03-01T07:29:49.892Z,93.18
2017-03-01T07:31:04.279Z,93.08
2017-03-01T07:32:18.689Z,92.89
2017-03-01T07:33:32.449Z,93.85
2017-03-01T07:34:46.252Z,93.57
2017-03-01T07:36:00.709Z,94.53
2017-03-01T07:37:15.111Z,94.2
2017-03-01T07:38:29.504Z,93.85
2017-03-01T07:39:43.971Z,93.71
2017-03-01T07:40:57.755Z,93.76
2017-03-01T07:42:12.139Z,93.47
2017-03-01T07:43:25.902Z,93.76
2017-03-01T07:44:39.707Z,93.23
2017-03-01T07:45:54.082Z,93.28
2017-03-01T07:47:08.495Z,92.22
2017-03-01T07:48:22.914Z,92.41
2017-03-01T07:49:36.665Z,91.93
2017-03-01T07:50:51.076Z,91.83
2017-03-01T07:52:05.512Z,91.54
2017-03-01T07:53:19.305Z,92.7
2017-03-01T07:54:33.717Z,91.16
2017-03-01T07:55:48.192Z,91.93
2017-03-01T07:57:01.977Z,92.02
2017-03-01T07:58:16.374Z,93.76
2017-03-01T07:59:30.135Z,93.18
2017-03-01T08:00:44.573Z,93.37
2017-03-01T08:01:58.404Z,93.66
2017-03-01T08:03:12.182Z,94.34
2017-03-01T08:04:25.974Z,94.92
2017-03-01T08:05:39.751Z,95.31
2017-03-01T08:06:54.193Z,96.36
2017-03-01T08:08:08.611Z,95.5
2017-03-01T08:09:23.022Z,96.46
2017-03-01T08:10:36.751Z,97.04
2017-03-01T08:11:51.191Z,96.8
2017-03-01T08:13:05.633Z,97.77
2017-03-01T08:14:19.419Z,97.77
2017-03-01T08:15:32.538Z,98.25
2017-03-01T08:16:46.322Z,97.57
2017-03-01T08:18:00.062Z,97.38
2017-03-01T08:19:14.460Z,97.09
2017-03-01T08:20:28.884Z,97.47
2017-03-01T08:21:42.047Z,97.47
2017-03-01T08:22:56.429Z,97.67
2017-03-01T08:24:10.234Z,98.34
2017-03-01T08:25:24.666Z,98.29
2017-03-01T08:26:38.446Z,97.91
2017-03-01T08:27:52.831Z,97.28
2017-03-01T08:29:07.241Z,98.1
2017-03-01T08:30:21.661Z,98.25
2017-03-01T08:31:36.079Z,98
2017-03-01T08:32:50.510Z,98.05
2017-03-01T08:34:04.253Z,97.67
2017-03-01T08:35:18.670Z,97.81
2017-03-01T08:36:33.094Z,98.73
2017-03-01T08:37:47.515Z,98.82
2017-03-01T08:39:01.944Z,99.02
2017-03-01T08:40:16.407Z,99.11
2017-03-01T08:41:30.871Z,98.29
2017-03-01T08:42:45.260Z,99.6
2017-03-01T08:43:59.672Z,99.74
2017-03-01T08:45:14.083Z,99.26
2017-03-01T08:46:28.477Z,99.55
2017-03-01T08:47:42.933Z,99.99
2017-03-01T08:48:57.361Z,99.99
2017-03-01T08:50:11.824Z,99.99
2017-03-01T08:51:26.240Z,99.99
2017-03-01T08:52:40.656Z,99.99
2017-03-01T08:53:53.773Z,99.99
2017-03-01T08:55:07.622Z,99.99
2017-03-01T08:56:22.024Z,99.99
2017-03-01T08:57:35.776Z,99.99
2017-03-01T08:58:50.186Z,99.99
2017-03-01T09:00:04.587Z,99.99
2017-03-01T09:01:18.362Z,99.99
2017-03-01T09:02:32.216Z,99.99
2017-03-01T09:03:46.622Z,99.99
2017-03-01T09:05:01.059Z,99.99
2017-03-01T09:06:15.475Z,99.93
2017-03-01T09:07:29.229Z,99.99
2017-03-01T09:08:43.629Z,99.99
2017-03-01T09:09:58.141Z,99.99
2017-03-01T09:11:12.549Z,99.99
2017-03-01T09:12:26.967Z,99.99
2017-03-01T09:13:40.751Z,99.99
2017-03-01T09:14:55.168Z,99.99
2017-03-01T09:16:08.955Z,99.99
2017-03-01T09:17:22.710Z,99.55
2017-03-01T09:18:36.477Z,99.64
2017-03-01T09:19:50.849Z,98.2
2017-03-01T09:21:05.253Z,94.44
2017-03-01T09:22:19.666Z,93.19
2017-03-01T09:23:34.092Z,92.56
2017-03-01T09:24:48.506Z,91.11
2017-03-01T09:26:02.963Z,90.82
2017-03-01T09:27:17.351Z,90.48
2017-03-01T09:28:31.105Z,89.32
2017-03-01T09:29:45.519Z,89.42
2017-03-01T09:30:59.916Z,88.02
2017-03-01T09:32:14.329Z,86.57
2017-03-01T09:33:28.710Z,85.7
2017-03-01T09:34:43.125Z,85.64
2017-03-01T09:35:56.893Z,84.68
2017-03-01T09:37:10.626Z,84.78
2017-03-01T09:38:25.062Z,84.1
2017-03-01T09:39:39.480Z,84.14
2017-03-01T09:40:53.240Z,83.66
2017-03-01T09:42:07.022Z,82.11
2017-03-01T09:43:20.812Z,80.22
2017-03-01T09:44:34.610Z,80.84
2017-03-01T09:45:48.398Z,79.68
2017-03-01T09:47:01.512Z,79.72
2017-03-01T09:48:15.919Z,77.78
2017-03-01T09:49:29.674Z,78.46
2017-03-01T09:50:43.433Z,78.66
2017-03-01T09:51:57.903Z,78.36
2017-03-01T09:53:11.721Z,77.88
2017-03-01T09:54:26.130Z,77.3
2017-03-01T09:55:39.952Z,77.36
2017-03-01T09:56:53.058Z,77.78
2017-03-01T09:58:06.825Z,76.24
2017-03-01T09:59:21.230Z,76.91
2017-03-01T10:00:35.604Z,77.4
2017-03-01T10:01:50.039Z,77.11
2017-03-01T10:03:04.469Z,77.3
2017-03-01T10:04:18.878Z,77.4
2017-03-01T10:05:33.298Z,76.72
2017-03-01T10:06:47.075Z,76.29
2017-03-01T10:08:01.484Z,76.78
2017-03-01T10:09:15.324Z,77.26
2017-03-01T10:10:29.758Z,76.82
2017-03-01T10:11:43.558Z,76.14
2017-03-01T10:12:57.321Z,75.75
2017-03-01T10:14:11.718Z,75.21
2017-03-01T10:15:26.124Z,74.24
2017-03-01T10:16:40.540Z,74.43
2017-03-01T10:17:54.937Z,76.24
2017-03-01T10:19:08.727Z,74.21
2017-03-01T10:20:23.162Z,74.11
2017-03-01T10:21:37.564Z,74.92
2017-03-01T10:22:51.996Z,74.69
2017-03-01T10:24:06.407Z,73.91
2017-03-01T10:25:20.178Z,73.53
2017-03-01T10:26:34.599Z,74.01
2017-03-01T10:27:48.425Z,74.79
2017-03-01T10:29:02.218Z,73.91
2017-03-01T10:30:16.644Z,74.43
2017-03-01T10:31:29.752Z,73.37
2017-03-01T10:32:42.841Z,72.11
2017-03-01T10:33:57.342Z,72.5
2017-03-01T10:35:11.735Z,73.95
2017-03-01T10:36:26.152Z,72.89
2017-03-01T10:37:39.941Z,73.47
2017-03-01T10:38:54.319Z,72.69
2017-03-01T10:40:07.452Z,72.69
2017-03-01T10:41:21.877Z,73.08
2017-03-01T10:42:35.720Z,73.18
2017-03-01T10:43:50.141Z,72.98
2017-03-01T10:45:03.910Z,72.24
2017-03-01T10:46:18.412Z,71.47
2017-03-01T10:47:32.890Z,70.89
2017-03-01T10:48:47.339Z,70.15
2017-03-01T10:50:00.482Z,69.31
2017-03-01T10:51:14.262Z,70.92
2017-03-01T10:52:28.704Z,68.7
2017-03-01T10:53:43.108Z,68.63
2017-03-01T10:54:57.494Z,69.89
2017-03-01T10:56:11.908Z,70.54
2017-03-01T10:57:26.320Z,71.41
2017-03-01T10:58:40.751Z,71.28
2017-03-01T10:59:55.178Z,70.98
2017-03-01T11:01:08.967Z,70.89
2017-03-01T11:02:23.449Z,72.15
2017-03-01T11:03:37.914Z,72.89
2017-03-01T11:04:52.403Z,72.11
2017-03-01T11:06:06.807Z,72.21
2017-03-01T11:07:20.640Z,71.08
2017-03-01T11:08:35.040Z,70.79
2017-03-01T11:09:49.461Z,71.47
2017-03-01T11:11:03.243Z,70.89
2017-03-01T11:12:17.640Z,72.83
2017-03-01T11:13:32.036Z,72.02
2017-03-01T11:14:46.469Z,72.83
2017-03-01T11:16:00.895Z,72.92
2017-03-01T11:17:15.321Z,71.28
2017-03-01T11:18:29.752Z,70.92
2017-03-01T11:19:44.147Z,70.63
2017-03-01T11:20:58.559Z,70.83
2017-03-01T11:22:12.313Z,70.92
2017-03-01T11:23:26.086Z,71.89
2017-03-01T11:24:40.501Z,70.73
2017-03-01T11:25:54.919Z,70.92
2017-03-01T11:27:09.762Z,70.96
2017-03-01T11:28:24.173Z,71.22
2017-03-01T11:29:38.588Z,69.99
2017-03-01T11:30:53.018Z,69.06
2017-03-01T11:32:06.797Z,69.54
2017-03-01T11:33:21.216Z,70.96
2017-03-01T11:34:35.658Z,69.12
2017-03-01T11:35:48.812Z,68.96
2017-03-01T11:37:02.557Z,68.7
2017-03-01T11:38:16.950Z,67.54
2017-03-01T11:39:31.387Z,67.18
2017-03-01T11:40:45.147Z,68.79
2017-03-01T11:41:59.590Z,68.47
2017-03-01T11:43:14.044Z,68.57
2017-03-01T11:44:27.827Z,67.73
2017-03-01T11:45:41.605Z,68.12
2017-03-01T11:46:56.034Z,68.7
2017-03-01T11:48:09.806Z,67.66
2017-03-01T11:49:23.647Z,67.41
2017-03-01T11:50:37.405Z,65.47
2017-03-01T11:51:51.224Z,64.88
2017-03-01T11:53:05.662Z,66.96
2017-03-01T11:54:20.071Z,68.25
2017-03-01T11:55:33.835Z,68.05
2017-03-01T11:56:47.615Z,69.09
2017-03-01T11:58:02.008Z,68.93
2017-03-01T11:59:16.457Z,70.15
2017-03-01T12:00:30.288Z,69.73
2017-03-01T12:01:44.736Z,68.21
2017-03-01T12:02:59.184Z,68.44
2017-03-01T12:04:13.636Z,69.09
2017-03-01T12:05:26.799Z,69.28
2017-03-01T12:06:40.590Z,68.89
2017-03-01T12:07:55.022Z,67.96
2017-03-01T12:09:09.485Z,69.51
2017-03-01T12:10:23.971Z,69.18
2017-03-01T12:11:37.110Z,70.64
2017-03-01T12:12:50.943Z,69.67
2017-03-01T12:14:04.891Z,68.63
2017-03-01T12:15:19.424Z,68.73
2017-03-01T12:16:33.932Z,67.02
2017-03-01T12:17:48.405Z,68.05
2017-03-01T12:19:02.261Z,68.44
2017-03-01T12:20:15.428Z,67.89
2017-03-01T12:21:29.863Z,68.87
2017-03-01T12:22:44.317Z,69.32
2017-03-01T12:23:58.791Z,70.09
2017-03-01T12:25:12.609Z,69.22
2017-03-01T12:26:27.061Z,70.09
2017-03-01T12:27:41.522Z,71.16
2017-03-01T12:28:55.360Z,70
2017-03-01T12:30:09.832Z,70.93
2017-03-01T12:31:23.650Z,69.67
2017-03-01T12:32:38.128Z,70
2017-03-01T12:33:51.943Z,70.09
2017-03-01T12:35:06.399Z,68.15
2017-03-01T12:36:20.865Z,69.64
2017-03-01T12:37:34.699Z,69.51
2017-03-01T12:38:49.166Z,70.03
2017-03-01T12:40:02.319Z,68.77
2017-03-01T12:41:16.789Z,68.32
2017-03-01T12:42:31.285Z,68.6
2017-03-01T12:44:04.392Z,68.67
2017-03-01T12:45:18.208Z,67.89
2017-03-01T12:46:32.675Z,67.24
2017-03-01T12:47:47.134Z,68.32
2017-03-01T12:49:00.939Z,68.99
2017-03-01T12:50:15.379Z,67.54
2017-03-01T12:51:29.815Z,65.92
2017-03-01T12:52:43.628Z,65.95
2017-03-01T12:53:58.077Z,65.43
2017-03-01T12:55:11.875Z,66.24
2017-03-01T12:56:26.360Z,66.89
2017-03-01T12:57:40.205Z,69.03
2017-03-01T12:58:54.667Z,68.99
2017-03-01T13:00:08.497Z,68.87
2017-03-01T13:01:22.285Z,68.8
2017-03-01T13:02:36.711Z,68.35
2017-03-01T13:03:51.130Z,68.74
2017-03-01T13:05:05.568Z,68.8
2017-03-01T13:06:19.317Z,68.12
2017-03-01T13:07:33.773Z,68.02
2017-03-01T13:08:48.184Z,67.38
2017-03-01T13:10:01.321Z,67.18
2017-03-01T13:11:15.846Z,67.7
2017-03-01T13:12:28.964Z,66.83
2017-03-01T13:13:42.745Z,68.09
2017-03-01T13:14:56.580Z,67.28
2017-03-01T13:16:10.359Z,68.64
2017-03-01T13:17:24.139Z,68.99
2017-03-01T13:18:38.567Z,68.12
2017-03-01T13:19:52.391Z,66.05
2017-03-01T13:21:04.920Z,65.95
2017-03-01T13:22:19.348Z,67.41
2017-03-01T13:23:33.171Z,66.53
2017-03-01T13:24:46.320Z,64.23
2017-03-01T13:26:00.153Z,64.17
2017-03-01T13:27:14.619Z,63.81
2017-03-01T13:28:28.432Z,62.47
2017-03-01T13:29:42.865Z,62.31
2017-03-01T13:30:57.305Z,60.49
2017-03-01T13:32:11.069Z,62.76
2017-03-01T13:33:25.501Z,61.5
2017-03-01T13:34:39.944Z,61.46
2017-03-01T13:35:54.383Z,64.49
2017-03-01T13:37:08.778Z,66.14
2017-03-01T13:38:23.217Z,66.79
2017-03-01T13:39:37.670Z,64.29
2017-03-01T13:40:52.120Z,63.65
2017-03-01T13:42:05.238Z,64.55
2017-03-01T13:43:19.695Z,63.68
2017-03-01T13:44:34.139Z,63.75
2017-03-01T13:45:47.286Z,63.51
2017-03-01T13:47:01.071Z,64.2
2017-03-01T13:48:15.511Z,63.58
2017-03-01T13:49:29.934Z,64.65
2017-03-01T13:50:43.751Z,64.42
2017-03-01T13:51:58.207Z,62.99
2017-03-01T13:53:11.347Z,61.89
2017-03-01T13:54:25.747Z,62.35
2017-03-01T13:55:39.502Z,63.78
2017-03-01T13:56:53.938Z,65.2
2017-03-01T13:58:07.693Z,64.52
2017-03-01T13:59:22.155Z,64.07
2017-03-01T14:00:35.943Z,65.04
2017-03-01T14:01:50.390Z,66.17
2017-03-01T14:03:04.843Z,67.5
2017-03-01T14:04:19.288Z,66.93
2017-03-01T14:05:32.425Z,68.05
2017-03-01T14:06:46.202Z,68.7
2017-03-01T14:08:00.647Z,66.79
2017-03-01T14:09:14.430Z,66.69
2017-03-01T14:10:28.856Z,66.93
2017-03-01T14:11:42.608Z,67.21
2017-03-01T14:12:55.759Z,68.15
2017-03-01T14:14:09.607Z,68.05
2017-03-01T14:15:23.372Z,66.02
2017-03-01T14:16:37.137Z,65.17
2017-03-01T14:17:50.940Z,66.93
2017-03-01T14:19:04.073Z,64.95
2017-03-01T14:20:16.574Z,64.78
2017-03-01T14:21:30.404Z,63.58
2017-03-01T14:22:44.856Z,63.02
2017-03-01T14:23:59.265Z,63.87
2017-03-01T14:25:13.117Z,64.72
2017-03-01T14:26:26.920Z,64.91
2017-03-01T14:27:41.333Z,65.27
2017-03-01T14:28:55.735Z,66.69
2017-03-01T14:30:10.164Z,66.21
2017-03-01T14:31:23.961Z,65.56
2017-03-01T14:32:38.389Z,66.69
2017-03-01T14:33:52.811Z,65.53
2017-03-01T14:35:06.634Z,66.24
2017-03-01T14:36:20.426Z,65.27
2017-03-01T14:37:34.865Z,66.21
2017-03-01T14:38:49.298Z,66.83
2017-03-01T14:40:02.464Z,64.78
2017-03-01T14:41:16.902Z,63.84
2017-03-01T14:42:31.299Z,64.04
2017-03-01T14:43:45.072Z,62.41
2017-03-01T14:44:58.844Z,63.02
2017-03-01T14:46:13.358Z,63.29
2017-03-01T14:47:25.877Z,64.04
2017-03-01T14:48:40.320Z,65.56
2017-03-01T14:49:54.115Z,65.11
2017-03-01T14:51:08.560Z,65.08
2017-03-01T14:52:22.352Z,64.98
2017-03-01T14:53:36.104Z,65.17
2017-03-01T14:54:50.542Z,65.17
2017-03-01T14:56:04.977Z,65.14
2017-03-01T14:57:19.406Z,65.14
2017-03-01T14:58:33.221Z,65.37
2017-03-01T14:59:46.383Z,63.65
2017-03-01T15:01:00.779Z,62.96
2017-03-01T15:02:15.239Z,62.87
2017-03-01T15:03:29.657Z,59.88
2017-03-01T15:04:44.094Z,62.02
2017-03-01T15:05:57.247Z,63.09
2017-03-01T15:07:10.993Z,62.67
2017-03-01T15:08:25.389Z,61.31
2017-03-01T15:09:38.536Z,61.54
2017-03-01T15:10:52.994Z,60.49
2017-03-01T15:12:07.435Z,59.26
2017-03-01T15:13:21.845Z,61.11
2017-03-01T15:14:36.254Z,62.05
2017-03-01T15:15:50.680Z,60.39
2017-03-01T15:17:05.101Z,58.97
2017-03-01T15:18:19.507Z,59.09
2017-03-01T15:19:33.269Z,60.1
2017-03-01T15:20:46.416Z,58.94
2017-03-01T15:21:59.576Z,58.7
2017-03-01T15:23:14.022Z,57.43
2017-03-01T15:24:27.822Z,55.73
2017-03-01T15:25:42.258Z,56.71
2017-03-01T15:26:56.069Z,59.02
2017-03-01T15:28:09.232Z,60.06
2017-03-01T15:29:23.077Z,58.28
2017-03-01T15:30:35.571Z,57.85
2017-03-01T15:31:49.497Z,60.78
2017-03-01T15:33:03.265Z,62.8
2017-03-01T15:34:17.098Z,63.26
2017-03-01T15:35:29.603Z,62.02
2017-03-01T15:36:44.038Z,61.54
2017-03-01T15:37:57.851Z,60.2
2017-03-01T15:39:12.304Z,58.22
2017-03-01T15:40:26.712Z,57.46
2017-03-01T15:41:40.496Z,55.8
2017-03-01T15:42:54.968Z,58.87
2017-03-01T15:44:09.391Z,59.91
2017-03-01T15:45:23.824Z,59.13
2017-03-01T15:46:38.283Z,59.06
2017-03-01T15:47:52.065Z,60.03
2017-03-01T15:49:06.490Z,59.13
2017-03-01T15:50:20.305Z,57.5
2017-03-01T15:51:34.208Z,58.34
2017-03-01T15:52:48.633Z,56.81
2017-03-01T15:54:03.092Z,56.22
2017-03-01T15:55:17.530Z,54.1
2017-03-01T15:56:31.275Z,53.37
2017-03-01T15:57:45.713Z,55.93
2017-03-01T15:58:59.516Z,55.61
2017-03-01T16:00:13.899Z,58.92
2017-03-01T16:01:28.364Z,57.31